Time;durP1;ratioP1;P1;durP2;ratioP2;P2;SDS_P1;SDS_P2;PMS_P1;PMS_P2;Temp;Humidity;BMP_temperature;BMP_pressure;BME280_temperature;BME280_humidity;BME280_pressure;Samples;Min_cycle;Max_cycle;Signal;HPM_P1;HPM_P2
2022/05/09 00:00:20;;;;;;;15.88;4.60;;;7.80;99.90;;;;;;4958166;28;20487;-75
2022/05/09 00:02:45;;;;;;;12.77;4.00;;;7.80;99.90;;;;;;4961972;28;21721;-75
2022/05/09 00:05:15;;;;;;;14.10;3.63;;;7.70;99.90;;;;;;4968175;28;20035;-75
2022/05/09 00:07:42;;;;;;;13.98;4.18;;;7.80;99.90;;;;;;4966882;28;20038;-74
2022/05/09 00:10:10;;;;;;;10.73;4.10;;;7.80;99.90;;;;;;4968110;28;20043;-75
2022/05/09 00:12:35;;;;;;;12.48;3.75;;;7.80;99.90;;;;;;4965331;28;20042;-75
2022/05/09 00:15:01;;;;;;;15.10;4.85;;;7.70;99.90;;;;;;4966732;28;20122;-75
2022/05/09 00:17:27;;;;;;;7.38;3.42;;;7.70;99.90;;;;;;4967167;28;20146;-75
2022/05/09 00:19:52;;;;;;;19.15;3.85;;;7.60;99.90;;;;;;4967076;28;20062;-76
2022/05/09 00:22:18;;;;;;;20.70;5.03;;;7.60;99.90;;;;;;4950593;28;20411;-76
2022/05/09 00:24:44;;;;;;;13.50;4.22;;;7.60;99.90;;;;;;4968376;28;20039;-75
2022/05/09 00:27:10;;;;;;;15.13;4.72;;;7.50;99.90;;;;;;4965251;28;20074;-75
2022/05/09 00:29:36;;;;;;;16.42;4.10;;;7.50;99.90;;;;;;4964281;28;20178;-75
2022/05/09 00:32:01;;;;;;;13.20;3.60;;;7.50;99.90;;;;;;4963135;28;20576;-75
2022/05/09 00:34:27;;;;;;;12.02;3.92;;;7.50;99.90;;;;;;4947513;29;20562;-75
2022/05/09 00:36:55;;;;;;;12.57;3.78;;;7.50;99.90;;;;;;4947022;29;20055;-75
2022/05/09 00:39:20;;;;;;;13.95;4.03;;;7.50;99.90;;;;;;4947036;28;20050;-75
2022/05/09 00:41:46;;;;;;;13.27;4.15;;;7.50;99.90;;;;;;4946758;29;20047;-75
2022/05/09 00:44:39;;;;;;;9.35;4.03;;;7.50;99.90;;;;;;4946841;28;20195;-75
2022/05/09 00:47:05;;;;;;;9.77;3.90;;;7.40;99.90;;;;;;4946374;29;20252;-76
2022/05/09 00:49:47;;;;;;;14.75;4.28;;;7.40;99.90;;;;;;4947420;29;20047;-75
2022/05/09 00:52:18;;;;;;;13.02;4.45;;;7.30;99.90;;;;;;4947168;28;20528;-75
2022/05/09 00:54:57;;;;;;;13.50;4.40;;;7.30;99.90;;;;;;4940329;29;20499;-75
2022/05/09 00:57:38;;;;;;;8.15;3.28;;;7.30;99.90;;;;;;4944029;29;20047;-75
2022/05/09 01:00:14;;;;;;;14.25;4.20;;;7.30;99.90;;;;;;4947206;29;20055;-75
2022/05/09 01:02:44;;;;;;;16.15;4.80;;;7.30;99.90;;;;;;4932990;29;20039;-75
2022/05/09 01:05:12;;;;;;;10.85;3.78;;;7.30;99.90;;;;;;4941356;29;20122;-75
2022/05/09 01:07:38;;;;;;;14.88;4.45;;;7.30;99.90;;;;;;4950014;29;20764;-75
2022/05/09 01:10:04;;;;;;;14.88;4.07;;;7.40;99.90;;;;;;4951421;29;20126;-75
2022/05/09 01:12:33;;;;;;;8.32;3.80;;;7.30;99.90;;;;;;4948126;29;20105;-75
2022/05/09 01:15:13;;;;;;;13.40;3.70;;;7.30;99.90;;;;;;4949469;29;20475;-75
2022/05/09 01:17:40;;;;;;;12.20;4.05;;;7.30;99.90;;;;;;4938536;29;20055;-76
2022/05/09 01:20:08;;;;;;;8.52;3.22;;;7.30;99.90;;;;;;4948931;28;20062;-76
2022/05/09 01:22:35;;;;;;;7.95;3.45;;;7.30;99.90;;;;;;4949182;29;20090;-75
2022/05/09 01:25:03;;;;;;;8.52;3.50;;;7.30;99.90;;;;;;4950933;29;20439;-76
2022/05/09 01:27:34;;;;;;;10.30;3.00;;;7.30;99.90;;;;;;4946724;29;20051;-75
2022/05/09 01:30:12;;;;;;;11.05;4.18;;;7.30;99.90;;;;;;4942622;28;20082;-75
2022/05/09 01:33:09;;;;;;;11.50;2.88;;;7.30;99.90;;;;;;4948245;28;20062;-75
2022/05/09 01:35:39;;;;;;;9.88;3.40;;;7.20;99.90;;;;;;4946178;28;20039;-76
2022/05/09 01:38:30;;;;;;;10.87;3.37;;;7.20;99.90;;;;;;4968295;28;20457;-75
2022/05/09 01:40:56;;;;;;;9.02;2.55;;;7.20;99.90;;;;;;4967209;28;20441;-75
2022/05/09 01:43:48;;;;;;;10.27;3.33;;;7.20;99.90;;;;;;4941650;28;20129;-75
2022/05/09 01:46:17;;;;;;;8.32;2.85;;;7.20;99.90;;;;;;4938964;28;20051;-75
2022/05/09 01:51:28;;;;;;;7.70;2.67;;;7.10;99.90;;;;;;4937670;28;20051;-75
2022/05/09 01:53:54;;;;;;;7.40;2.45;;;7.10;99.90;;;;;;4968959;28;20058;-75
2022/05/09 01:56:22;;;;;;;6.88;2.08;;;7.00;99.90;;;;;;4965307;28;20035;-75
2022/05/09 01:58:49;;;;;;;5.88;2.60;;;7.00;99.90;;;;;;4966719;28;20042;-75
2022/05/09 02:01:16;;;;;;;9.55;2.80;;;7.00;99.90;;;;;;4962849;28;20065;-75
2022/05/09 02:03:45;;;;;;;6.30;1.92;;;7.00;99.90;;;;;;4961346;28;20436;-75
2022/05/09 02:06:11;;;;;;;9.98;2.20;;;7.00;99.90;;;;;;4966747;28;20050;-75
2022/05/09 02:08:37;;;;;;;8.18;1.90;;;6.90;99.90;;;;;;4971009;28;20394;-75
2022/05/09 02:11:04;;;;;;;4.47;2.63;;;6.90;99.90;;;;;;4951735;28;20118;-75
2022/05/09 02:13:29;;;;;;;5.53;1.73;;;6.90;99.90;;;;;;4968312;28;20047;-75
2022/05/09 02:15:55;;;;;;;6.28;1.77;;;6.90;99.90;;;;;;4966487;28;20051;-74
2022/05/09 02:18:20;;;;;;;4.45;2.70;;;6.80;99.90;;;;;;4966549;28;20046;-74
2022/05/09 02:20:46;;;;;;;7.45;2.50;;;6.80;99.90;;;;;;4970262;28;20399;-74
2022/05/09 02:23:13;;;;;;;6.47;2.00;;;6.80;99.90;;;;;;4968336;28;20113;-75
2022/05/09 02:25:40;;;;;;;8.13;2.33;;;6.80;99.90;;;;;;4951966;28;20050;-75
2022/05/09 02:28:09;;;;;;;8.65;2.30;;;6.80;99.90;;;;;;4967449;28;20591;-75
2022/05/09 02:30:36;;;;;;;6.15;2.50;;;6.80;99.90;;;;;;4965810;28;20042;-75
2022/05/09 02:33:02;;;;;;;5.18;2.55;;;6.80;99.90;;;;;;4968714;28;20055;-75
2022/05/09 02:35:29;;;;;;;7.65;2.67;;;6.80;99.90;;;;;;4951729;28;20122;-75
2022/05/09 02:37:55;;;;;;;7.43;2.88;;;6.80;99.90;;;;;;4967490;28;20053;-75
2022/05/09 02:40:24;;;;;;;8.45;2.85;;;6.80;99.90;;;;;;4969541;28;20403;-75
2022/05/09 02:42:50;;;;;;;8.43;2.75;;;6.80;99.90;;;;;;4968822;28;20109;-75
2022/05/09 02:45:16;;;;;;;4.05;2.20;;;6.80;99.90;;;;;;4968994;28;20047;-75
2022/05/09 02:47:41;;;;;;;11.57;3.03;;;6.80;99.90;;;;;;4968541;28;20468;-75
2022/05/09 02:50:09;;;;;;;7.22;2.63;;;6.70;99.90;;;;;;4968014;28;21402;-75
2022/05/09 02:52:36;;;;;;;8.27;2.83;;;6.80;99.90;;;;;;4970808;28;20046;-75
2022/05/09 02:55:03;;;;;;;7.03;2.80;;;6.70;99.90;;;;;;4951030;28;20102;-75
2022/05/09 02:57:28;;;;;;;7.18;3.42;;;6.70;99.90;;;;;;4949469;28;20038;-76
2022/05/09 02:59:54;;;;;;;9.80;2.67;;;6.70;99.90;;;;;;4950475;28;20093;-75
2022/05/09 03:02:19;;;;;;;5.88;2.65;;;6.70;99.90;;;;;;4968764;28;20051;-75
2022/05/09 03:04:45;;;;;;;6.22;2.65;;;6.70;99.90;;;;;;4970152;28;20065;-75
2022/05/09 03:07:19;;;;;;;7.50;2.28;;;6.70;99.90;;;;;;4968647;28;20042;-75
2022/05/09 03:09:48;;;;;;;9.75;2.30;;;6.70;99.90;;;;;;4970722;28;20047;-75
2022/05/09 03:12:18;;;;;;;5.43;2.45;;;6.70;99.90;;;;;;4967042;28;20101;-75
2022/05/09 03:14:44;;;;;;;6.38;2.75;;;6.70;99.90;;;;;;4968237;28;20076;-75
2022/05/09 03:17:10;;;;;;;4.47;2.50;;;6.70;99.90;;;;;;4965591;28;20058;-75
2022/05/09 03:19:35;;;;;;;7.82;2.30;;;6.80;99.90;;;;;;4950512;28;20045;-75
2022/05/09 03:22:01;;;;;;;6.00;2.65;;;6.70;99.90;;;;;;4968330;28;20174;-75
2022/05/09 03:24:27;;;;;;;7.63;2.75;;;6.80;99.90;;;;;;4967557;28;20142;-75
2022/05/09 03:26:53;;;;;;;11.35;3.00;;;6.80;99.90;;;;;;4966791;28;20049;-75
2022/05/09 03:29:19;;;;;;;14.60;2.90;;;6.70;99.90;;;;;;4949809;28;20450;-75
2022/05/09 03:31:46;;;;;;;6.30;2.72;;;6.70;99.90;;;;;;4966828;28;20055;-75
2022/05/09 03:34:13;;;;;;;6.65;2.50;;;6.60;99.90;;;;;;4965581;28;20154;-75
2022/05/09 03:36:38;;;;;;;8.82;2.67;;;6.60;99.90;;;;;;4967110;28;20073;-75
2022/05/09 03:39:04;;;;;;;7.18;2.45;;;6.60;99.90;;;;;;4969787;28;20562;-75
2022/05/09 03:41:30;;;;;;;3.70;2.17;;;6.60;99.90;;;;;;4968584;28;20050;-75
2022/05/09 03:43:56;;;;;;;4.82;2.58;;;6.60;99.90;;;;;;4967390;28;20035;-75
2022/05/09 03:46:22;;;;;;;6.07;2.58;;;6.60;99.90;;;;;;4950020;28;20372;-75
2022/05/09 03:48:47;;;;;;;8.45;2.88;;;6.50;99.90;;;;;;4968531;28;20074;-75
2022/05/09 03:51:13;;;;;;;8.45;2.65;;;6.50;99.90;;;;;;4950465;28;20097;-75
2022/05/09 03:53:38;;;;;;;4.95;2.38;;;6.50;99.90;;;;;;4951793;28;20051;-75
2022/05/09 03:56:05;;;;;;;5.45;2.15;;;6.50;99.90;;;;;;4950036;28;20072;-75
2022/05/09 03:58:31;;;;;;;6.25;2.63;;;6.50;99.90;;;;;;4966106;28;20065;-75
2022/05/09 04:00:56;;;;;;;6.72;2.70;;;6.40;99.90;;;;;;4968378;28;20043;-75
2022/05/09 04:03:22;;;;;;;4.35;2.15;;;6.40;99.90;;;;;;4967428;28;20121;-74
2022/05/09 04:05:48;;;;;;;11.60;2.75;;;6.30;99.90;;;;;;4968498;28;20046;-75
2022/05/09 04:08:16;;;;;;;6.53;2.25;;;6.30;99.90;;;;;;4949724;28;20053;-75
2022/05/09 04:10:43;;;;;;;5.10;2.15;;;6.20;99.90;;;;;;4968703;28;20043;-75
2022/05/09 04:13:09;;;;;;;2.85;1.80;;;6.10;99.90;;;;;;4950620;28;20465;-75
2022/05/09 04:18:21;;;;;;;5.57;2.33;;;6.00;99.90;;;;;;4949166;28;20740;-75
2022/05/09 04:20:48;;;;;;;3.20;1.35;;;6.00;99.90;;;;;;4948968;28;20051;-75
2022/05/09 04:23:15;;;;;;;5.22;2.13;;;6.00;99.90;;;;;;4968053;28;20031;-75
2022/05/09 04:25:41;;;;;;;4.18;1.52;;;5.90;99.90;;;;;;4966334;28;20038;-75
2022/05/09 04:28:11;;;;;;;2.30;1.38;;;5.90;99.90;;;;;;4963508;28;20065;-75
2022/05/09 04:30:38;;;;;;;4.35;1.08;;;5.90;99.90;;;;;;4967564;28;20101;-75
2022/05/09 04:33:06;;;;;;;1.60;1.17;;;5.90;99.90;;;;;;4948024;28;20058;-76
2022/05/09 04:35:33;;;;;;;6.00;2.10;;;5.90;99.90;;;;;;4950231;28;20144;-75
2022/05/09 04:38:02;;;;;;;3.72;1.38;;;5.90;99.90;;;;;;4950290;28;20062;-75
2022/05/09 04:40:35;;;;;;;5.75;2.00;;;5.90;99.90;;;;;;4954056;28;20058;-76
2022/05/09 04:43:02;;;;;;;5.07;1.75;;;5.90;99.90;;;;;;4952972;28;20047;-75
2022/05/09 04:45:32;;;;;;;3.03;1.52;;;5.90;99.90;;;;;;4970687;28;20378;-75
2022/05/09 04:47:58;;;;;;;3.95;2.30;;;6.00;99.90;;;;;;4970837;28;20046;-76
2022/05/09 04:50:25;;;;;;;2.92;1.90;;;6.00;99.90;;;;;;4954981;28;20117;-76
2022/05/09 04:52:54;;;;;;;4.05;1.98;;;6.10;99.90;;;;;;4954061;28;20058;-75
2022/05/09 04:55:20;;;;;;;3.08;1.55;;;6.10;99.90;;;;;;4970937;28;20046;-76
2022/05/09 04:57:49;;;;;;;5.43;1.80;;;6.20;99.90;;;;;;4969243;28;20051;-75
2022/05/09 05:00:17;;;;;;;6.35;2.50;;;6.30;99.90;;;;;;4964191;28;20049;-76
2022/05/09 05:02:43;;;;;;;3.42;1.77;;;6.30;99.90;;;;;;4970502;28;20047;-76
2022/05/09 05:05:09;;;;;;;3.65;2.05;;;6.40;99.90;;;;;;4970668;28;20096;-76
2022/05/09 05:07:35;;;;;;;7.15;2.17;;;6.40;99.90;;;;;;4953131;28;20047;-75
2022/05/09 05:10:01;;;;;;;4.15;2.47;;;6.50;99.90;;;;;;4952880;28;20055;-76
2022/05/09 05:12:27;;;;;;;4.35;2.40;;;6.60;99.90;;;;;;4970791;28;20128;-76
2022/05/09 05:14:53;;;;;;;4.75;2.42;;;6.60;99.90;;;;;;4953027;28;20042;-76
2022/05/09 05:17:18;;;;;;;5.88;3.50;;;6.70;99.90;;;;;;4953516;28;20061;-76
2022/05/09 05:19:44;;;;;;;6.78;2.97;;;6.80;99.90;;;;;;4969678;28;20046;-76
2022/05/09 05:22:15;;;;;;;7.15;3.95;;;6.90;99.90;;;;;;4952435;28;20047;-76
2022/05/09 05:24:44;;;;;;;14.60;5.87;;;6.90;99.90;;;;;;4975430;28;20053;-76
2022/05/09 05:27:11;;;;;;;11.75;5.45;;;7.00;99.90;;;;;;4952689;28;20397;-76
2022/05/09 05:29:37;;;;;;;18.30;5.30;;;7.10;99.90;;;;;;4966100;28;20047;-76
2022/05/09 05:32:14;;;;;;;14.38;5.88;;;7.20;99.90;;;;;;4951117;28;20047;-75
2022/05/09 05:34:40;;;;;;;14.35;5.00;;;7.30;99.90;;;;;;4969840;28;20062;-76
2022/05/09 05:37:05;;;;;;;15.40;4.38;;;7.30;99.90;;;;;;4951794;28;20074;-76
2022/05/09 05:39:34;;;;;;;14.02;5.32;;;7.40;99.90;;;;;;4953163;28;20047;-76
2022/05/09 05:41:59;;;;;;;13.25;5.13;;;7.50;99.90;;;;;;4968494;28;20069;-76
2022/05/09 05:44:25;;;;;;;16.27;5.22;;;7.50;99.90;;;;;;4951333;28;20047;-76
2022/05/09 05:46:51;;;;;;;11.10;4.88;;;7.60;99.90;;;;;;4970843;28;20363;-75
2022/05/09 05:49:16;;;;;;;17.58;4.47;;;7.80;99.90;;;;;;4951347;28;20166;-77
2022/05/09 05:51:48;;;;;;;16.42;4.95;;;7.80;99.90;;;;;;4969247;28;20039;-78
2022/05/09 05:54:13;;;;;;;16.58;5.18;;;7.90;99.90;;;;;;4969714;28;20321;-77
2022/05/09 05:56:39;;;;;;;21.60;5.65;;;8.00;99.90;;;;;;4954226;28;20054;-75
2022/05/09 05:59:05;;;;;;;10.60;4.50;;;8.00;99.90;;;;;;4951192;28;20047;-75
2022/05/09 06:01:33;;;;;;;17.55;4.90;;;8.10;99.90;;;;;;4952921;28;20070;-74
2022/05/09 06:04:00;;;;;;;18.70;5.35;;;8.20;99.90;;;;;;4966403;28;20565;-75
2022/05/09 06:06:26;;;;;;;16.15;6.00;;;8.30;99.90;;;;;;4975365;28;20074;-75
2022/05/09 06:08:51;;;;;;;29.70;6.10;;;8.40;99.90;;;;;;4952214;28;20073;-75
2022/05/09 06:11:17;;;;;;;29.02;7.05;;;8.50;99.90;;;;;;4970128;28;20090;-75
2022/05/09 06:13:42;;;;;;;19.08;6.45;;;8.60;99.90;;;;;;4962161;28;20042;-75
2022/05/09 06:16:08;;;;;;;30.90;6.10;;;8.70;99.90;;;;;;4971888;28;20133;-75
2022/05/09 06:18:34;;;;;;;33.60;6.45;;;8.70;99.90;;;;;;4969829;28;20039;-75
2022/05/09 06:20:59;;;;;;;27.80;6.38;;;8.80;99.90;;;;;;4953657;28;20042;-75
2022/05/09 06:23:25;;;;;;;14.93;4.78;;;8.90;99.90;;;;;;4971450;28;20102;-76
2022/05/09 06:25:51;;;;;;;18.80;5.82;;;9.00;99.90;;;;;;4950371;28;20672;-75
2022/05/09 06:28:22;;;;;;;33.22;7.68;;;9.10;99.90;;;;;;4949434;28;20039;-77
2022/05/09 06:30:47;;;;;;;26.63;6.17;;;9.20;99.90;;;;;;4979699;28;20087;-77
2022/05/09 06:33:20;;;;;;;20.35;6.43;;;9.30;99.90;;;;;;4953143;28;20082;-77
2022/05/09 06:35:45;;;;;;;33.00;7.97;;;9.40;99.90;;;;;;4968890;28;20412;-77
2022/05/09 06:38:15;;;;;;;17.70;5.93;;;9.50;99.90;;;;;;4965799;28;20174;-77
2022/05/09 06:40:41;;;;;;;21.77;6.28;;;9.60;99.90;;;;;;4970454;28;20046;-77
2022/05/09 06:43:07;;;;;;;25.92;6.05;;;9.70;99.90;;;;;;4969393;28;20068;-77
2022/05/09 06:45:34;;;;;;;21.10;5.97;;;9.80;99.90;;;;;;4968199;28;20142;-77
2022/05/09 06:48:00;;;;;;;15.70;5.15;;;9.90;99.90;;;;;;4969129;28;20046;-78
2022/05/09 06:50:29;;;;;;;19.00;4.97;;;10.00;99.90;;;;;;4950664;28;20047;-77
2022/05/09 06:52:54;;;;;;;24.27;5.75;;;10.10;99.90;;;;;;4965837;28;20495;-77
2022/05/09 06:55:21;;;;;;;19.20;5.55;;;10.20;99.90;;;;;;4947154;28;20046;-76
2022/05/09 06:57:49;;;;;;;20.20;5.40;;;10.30;99.90;;;;;;4963850;28;20506;-76
2022/05/09 07:00:20;;;;;;;19.73;5.95;;;10.40;99.90;;;;;;4963312;28;20046;-76
2022/05/09 07:02:46;;;;;;;16.85;4.95;;;10.50;99.90;;;;;;4968044;28;20595;-76
2022/05/09 07:05:15;;;;;;;24.27;6.18;;;10.60;99.90;;;;;;4952003;28;20054;-77
2022/05/09 07:07:41;;;;;;;21.63;7.07;;;10.70;99.90;;;;;;4948084;28;20657;-77
2022/05/09 07:10:07;;;;;;;19.73;5.78;;;10.80;99.90;;;;;;4967642;28;20074;-76
2022/05/09 07:12:44;;;;;;;14.88;5.00;;;10.90;99.90;;;;;;4964940;28;20046;-76
2022/05/09 07:15:16;;;;;;;14.23;4.60;;;11.00;99.90;;;;;;4963310;28;20407;-77
2022/05/09 07:17:42;;;;;;;21.55;5.82;;;11.10;99.90;;;;;;4949373;28;20051;-76
2022/05/09 07:20:08;;;;;;;16.40;5.85;;;11.20;99.90;;;;;;4968207;28;20051;-73
2022/05/09 07:22:34;;;;;;;19.58;4.90;;;11.30;99.90;;;;;;4969479;28;20054;-75
2022/05/09 07:25:02;;;;;;;14.20;4.68;;;11.30;99.90;;;;;;4948401;28;20783;-76
2022/05/09 07:27:28;;;;;;;23.13;5.35;;;11.40;99.90;;;;;;4948966;28;20055;-76
2022/05/09 07:29:54;;;;;;;16.25;5.88;;;11.50;99.90;;;;;;4965521;28;20051;-77
2022/05/09 07:32:21;;;;;;;25.30;6.93;;;11.60;99.90;;;;;;4948131;28;20051;-77
2022/05/09 07:34:48;;;;;;;23.77;5.45;;;11.70;99.90;;;;;;4944832;28;20096;-77
2022/05/09 07:37:15;;;;;;;19.63;5.35;;;11.80;99.90;;;;;;4954994;28;20042;-76
2022/05/09 07:39:41;;;;;;;15.68;4.72;;;11.90;99.90;;;;;;4950095;28;20129;-76
2022/05/09 07:42:07;;;;;;;17.65;5.95;;;12.00;99.90;;;;;;4964142;28;20135;-75
2022/05/09 07:44:32;;;;;;;24.85;6.07;;;12.10;99.90;;;;;;4967629;28;20066;-75
2022/05/09 07:46:58;;;;;;;14.23;5.30;;;12.20;99.90;;;;;;4962102;28;20078;-76
2022/05/09 07:49:23;;;;;;;21.35;5.32;;;12.30;99.90;;;;;;4962179;28;20061;-76
2022/05/09 07:51:49;;;;;;;14.50;4.78;;;12.40;99.90;;;;;;4958774;28;20148;-75
2022/05/09 07:54:15;;;;;;;17.00;4.28;;;12.50;99.90;;;;;;4955741;28;20042;-75
2022/05/09 07:56:44;;;;;;;17.20;4.43;;;12.60;99.90;;;;;;4955503;28;20043;-75
2022/05/09 07:59:10;;;;;;;19.38;4.22;;;12.60;99.90;;;;;;4946306;28;20058;-75
2022/05/09 08:01:36;;;;;;;19.83;4.57;;;12.70;99.90;;;;;;4965285;28;20050;-77
2022/05/09 08:04:02;;;;;;;21.05;4.45;;;12.80;99.90;;;;;;4967896;28;20556;-76
2022/05/09 08:06:27;;;;;;;18.17;3.85;;;12.90;99.90;;;;;;4964535;28;20065;-75
2022/05/09 08:08:53;;;;;;;13.05;4.00;;;13.00;99.90;;;;;;4943742;28;20050;-75
2022/05/09 08:11:21;;;;;;;18.90;4.90;;;13.10;99.90;;;;;;4966391;28;20396;-76
2022/05/09 08:13:47;;;;;;;14.65;4.55;;;13.20;99.90;;;;;;4969233;28;20123;-75
2022/05/09 08:16:14;;;;;;;17.80;5.43;;;13.30;99.90;;;;;;4974125;28;20157;-76
2022/05/09 08:18:40;;;;;;;24.40;4.88;;;13.40;99.90;;;;;;4954167;28;20058;-76
2022/05/09 08:21:09;;;;;;;14.88;4.30;;;13.50;99.90;;;;;;4972407;28;20039;-75
2022/05/09 08:23:35;;;;;;;16.02;5.00;;;13.50;99.90;;;;;;4948947;28;20145;-75
2022/05/09 08:26:03;;;;;;;10.80;3.75;;;13.60;99.90;;;;;;4939687;28;20144;-75
2022/05/09 08:28:28;;;;;;;19.25;3.88;;;13.70;99.90;;;;;;4953280;28;20109;-76
2022/05/09 08:30:55;;;;;;;11.77;3.90;;;13.80;99.90;;;;;;4968463;28;20042;-75
2022/05/09 08:33:23;;;;;;;15.35;3.88;;;13.80;99.90;;;;;;4969440;28;20427;-76
2022/05/09 08:35:51;;;;;;;13.90;4.25;;;13.90;99.90;;;;;;4955154;28;20050;-75
2022/05/09 08:38:18;;;;;;;16.80;3.88;;;14.00;99.90;;;;;;4953732;28;20055;-75
2022/05/09 08:41:05;;;;;;;13.70;4.47;;;14.10;99.90;;;;;;4973805;28;20137;-75
2022/05/09 08:43:55;;;;;;;17.55;4.50;;;14.20;99.90;;;;;;4968288;28;20070;-76
2022/05/09 08:46:28;;;;;;;;;;;14.30;99.90;;;;;;4966215;28;20113;-75
2022/05/09 08:49:28;;;;;;;13.13;3.05;;;14.30;99.90;;;;;;4982720;28;19926;-76
2022/05/09 08:52:15;;;;;;;12.88;3.78;;;14.40;99.90;;;;;;4992030;28;20378;-75
2022/05/09 08:54:41;;;;;;;11.90;3.55;;;14.50;99.90;;;;;;4971432;28;20467;-74
2022/05/09 08:57:13;;;;;;;10.68;3.42;;;14.60;99.90;;;;;;4954395;28;20046;-75
2022/05/09 08:59:49;;;;;;;12.02;2.92;;;14.70;99.90;;;;;;4970022;28;20125;-75
2022/05/09 09:02:24;;;;;;;10.93;3.13;;;14.70;99.90;;;;;;4978373;28;20062;-75
2022/05/09 09:04:54;;;;;;;12.00;3.58;;;14.80;99.90;;;;;;4971871;28;20078;-75
2022/05/09 09:07:54;;;;;;;21.77;3.53;;;14.90;99.90;;;;;;4972011;28;20097;-75
2022/05/09 09:10:30;;;;;;;19.23;3.10;;;15.00;99.90;;;;;;4954556;28;20050;-75
2022/05/09 09:13:22;;;;;;;11.73;3.20;;;15.10;99.80;;;;;;4952952;28;20399;-75
2022/05/09 09:16:15;;;;;;;12.88;2.80;;;15.20;99.90;;;;;;4972612;28;20161;-75
2022/05/09 09:18:42;;;;;;;12.35;2.72;;;15.30;99.30;;;;;;4972621;28;20050;-75
2022/05/09 09:21:21;;;;;;;17.98;3.22;;;15.40;98.70;;;;;;4954472;28;20772;-74
2022/05/09 09:24:06;;;;;;;19.27;3.17;;;15.50;98.60;;;;;;4945408;28;20052;-74
2022/05/09 09:26:55;;;;;;;12.65;2.90;;;15.60;97.60;;;;;;4968798;28;20225;-75
2022/05/09 09:29:37;;;;;;;14.43;3.20;;;15.70;97.10;;;;;;4970210;28;20045;-76
2022/05/09 09:32:08;;;;;;;19.65;3.63;;;15.80;96.90;;;;;;4972066;28;20054;-76
2022/05/09 09:34:57;;;;;;;9.48;3.33;;;15.80;96.10;;;;;;4951043;28;20411;-76
2022/05/09 09:37:31;;;;;;;21.85;3.17;;;15.90;96.10;;;;;;4950114;28;20050;-74
2022/05/09 09:39:57;;;;;;;12.45;2.78;;;16.00;94.50;;;;;;4972129;28;20047;-75
2022/05/09 09:42:23;;;;;;;12.00;2.50;;;16.10;94.30;;;;;;4965777;28;20506;-76
2022/05/09 09:44:49;;;;;;;17.77;3.17;;;16.20;93.70;;;;;;4976650;28;20068;-75
2022/05/09 09:47:23;;;;;;;12.23;3.00;;;16.30;93.50;;;;;;4955680;28;20460;-75
2022/05/09 09:50:29;;;;;;;12.45;3.03;;;16.40;92.80;;;;;;4981766;28;20038;-75
2022/05/09 09:52:58;;;;;;;10.57;2.28;;;16.40;92.30;;;;;;4968232;28;20055;-75
2022/05/09 09:55:27;;;;;;;7.68;2.20;;;16.50;91.60;;;;;;4969678;28;20053;-75
2022/05/09 09:57:55;;;;;;;13.15;2.85;;;16.60;90.40;;;;;;4950635;28;20058;-80
2022/05/09 10:00:24;;;;;;;16.02;2.50;;;16.60;90.00;;;;;;4952620;28;20343;-81
2022/05/09 10:02:51;;;;;;;9.35;2.83;;;16.70;89.10;;;;;;4953938;28;20535;-84
2022/05/09 10:05:21;;;;;;;12.40;2.65;;;16.80;87.30;;;;;;4954196;28;20133;-82
2022/05/09 10:07:47;;;;;;;18.83;3.58;;;16.90;88.10;;;;;;4970633;28;20110;-81
2022/05/09 10:10:28;;;;;;;11.88;2.80;;;16.90;87.30;;;;;;4971827;28;20140;-81
2022/05/09 10:12:56;;;;;;;13.05;2.70;;;17.10;86.00;;;;;;4951879;28;20039;-79
2022/05/09 10:15:26;;;;;;;17.55;3.17;;;17.10;85.10;;;;;;4971620;28;20509;-80
2022/05/09 10:17:53;;;;;;;8.05;2.50;;;17.20;84.80;;;;;;4950118;28;20046;-80
2022/05/09 10:20:40;;;;;;;14.50;3.30;;;17.20;83.70;;;;;;4970086;28;20046;-81
2022/05/09 10:26:25;;;;;;;12.35;2.42;;;17.40;81.90;;;;;;4970715;28;20562;-78
2022/05/09 10:28:58;;;;;;;14.25;3.03;;;17.50;81.30;;;;;;4951625;28;20047;-78
2022/05/09 10:31:48;;;;;;;14.90;2.72;;;17.60;80.80;;;;;;4947698;28;20125;-77
2022/05/09 10:34:18;;;;;;;12.80;3.00;;;17.70;79.80;;;;;;4943581;28;20372;-74
2022/05/09 10:36:50;;;;;;;9.73;2.65;;;17.80;80.00;;;;;;4951784;28;20672;-75
2022/05/09 10:39:33;;;;;;;15.02;3.40;;;17.90;79.00;;;;;;4957429;28;20468;-74
2022/05/09 10:42:05;;;;;;;10.35;2.83;;;18.00;77.70;;;;;;4948259;29;20204;-74
2022/05/09 10:44:47;;;;;;;8.55;2.80;;;18.00;77.00;;;;;;4947628;29;20126;-74
2022/05/09 10:47:48;;;;;;;14.68;3.17;;;18.10;76.30;;;;;;4939118;28;20067;-74
2022/05/09 10:50:21;;;;;;;13.07;2.97;;;18.20;77.70;;;;;;4940321;29;20050;-72
2022/05/09 10:53:09;;;;;;;11.80;2.80;;;18.30;75.40;;;;;;4947040;28;20602;-72
2022/05/09 10:55:47;;;;;;;5.82;2.40;;;18.40;74.50;;;;;;4943123;29;20373;-72
2022/05/09 10:58:37;;;;;;;11.90;2.78;;;18.50;74.20;;;;;;4948337;28;20078;-74
2022/05/09 11:01:16;;;;;;;8.77;2.25;;;18.60;71.90;;;;;;4947323;29;20059;-73
2022/05/09 11:03:44;;;;;;;9.40;2.20;;;18.70;70.80;;;;;;4947093;29;20077;-72
2022/05/09 11:06:55;;;;;;;14.68;3.15;;;18.90;70.20;;;;;;4940460;29;20039;-72
2022/05/09 11:09:47;;;;;;;8.98;2.28;;;19.00;70.10;;;;;;4945757;29;20146;-72
2022/05/09 11:12:42;;;;;;;8.65;2.92;;;19.10;67.20;;;;;;4941404;29;20054;-72
2022/05/09 11:15:34;;;;;;;7.80;2.38;;;19.10;66.70;;;;;;4943231;29;20624;-71
2022/05/09 11:18:34;;;;;;;7.88;2.00;;;19.20;66.10;;;;;;4949948;28;20581;-72
2022/05/09 11:21:20;;;;;;;8.98;2.28;;;19.30;65.50;;;;;;4943680;28;20073;-71
2022/05/09 11:24:04;;;;;;;8.60;1.92;;;19.40;65.30;;;;;;4949267;28;20118;-72
2022/05/09 11:27:08;;;;;;;10.15;2.38;;;19.50;64.60;;;;;;4944800;29;20039;-72
2022/05/09 11:30:24;;;;;;;8.63;2.30;;;19.70;64.80;;;;;;4944228;29;20060;-73
2022/05/09 11:33:02;;;;;;;8.45;2.20;;;19.90;64.30;;;;;;4923688;28;20078;-71
2022/05/09 11:35:34;;;;;;;7.88;2.33;;;19.90;62.40;;;;;;4967517;28;20274;-71
2022/05/09 11:38:11;;;;;;;7.57;2.58;;;20.00;60.70;;;;;;4969089;28;20039;-72
2022/05/09 11:41:08;;;;;;;9.13;2.20;;;20.10;60.90;;;;;;4964921;28;20042;-72
2022/05/09 11:43:54;;;;;;;7.30;2.17;;;20.20;61.40;;;;;;4936561;28;20045;-72
2022/05/09 11:46:26;;;;;;;10.45;2.67;;;20.40;62.70;;;;;;4950394;28;20129;-71
2022/05/09 11:49:32;;;;;;;8.00;1.95;;;20.50;61.00;;;;;;4962545;28;20051;-71
2022/05/09 11:52:01;;;;;;;9.48;2.08;;;20.60;61.20;;;;;;4967942;28;20057;-71
2022/05/09 11:54:38;;;;;;;10.15;2.38;;;20.80;61.50;;;;;;4963684;28;20397;-71
2022/05/09 11:57:11;;;;;;;7.57;2.42;;;20.90;60.30;;;;;;4967681;28;20047;-71
2022/05/09 11:59:37;;;;;;;7.10;2.28;;;21.10;59.70;;;;;;4969170;28;20054;-72
2022/05/09 12:02:12;;;;;;;8.88;2.25;;;21.20;58.60;;;;;;4968018;28;20085;-71
2022/05/09 12:04:43;;;;;;;8.90;2.95;;;21.30;57.70;;;;;;4950987;28;20059;-72
2022/05/09 12:07:20;;;;;;;8.63;2.60;;;21.30;58.90;;;;;;4968120;28;20042;-71
2022/05/09 12:10:16;;;;;;;10.90;2.22;;;21.40;58.80;;;;;;4951993;28;20053;-72
2022/05/09 12:12:49;;;;;;;11.10;2.67;;;21.50;59.80;;;;;;4965274;28;20533;-72
2022/05/09 12:15:14;;;;;;;9.82;2.75;;;21.70;59.80;;;;;;4970052;28;20129;-71
2022/05/09 12:17:44;;;;;;;7.63;2.70;;;21.80;59.80;;;;;;4969359;28;20046;-71
2022/05/09 12:20:32;;;;;;;12.43;2.63;;;21.90;58.00;;;;;;4948009;28;20051;-71
2022/05/09 12:23:05;;;;;;;11.68;2.28;;;22.10;58.90;;;;;;4938193;28;20099;-72
2022/05/09 12:25:41;;;;;;;9.82;2.50;;;22.20;57.70;;;;;;4967766;28;20046;-71
2022/05/09 12:28:26;;;;;;;7.78;2.53;;;22.20;57.20;;;;;;4968971;28;20101;-71
2022/05/09 12:30:58;;;;;;;14.00;2.65;;;22.30;56.70;;;;;;4966889;28;20395;-72
2022/05/09 12:33:43;;;;;;;9.02;3.03;;;22.30;57.20;;;;;;4961005;28;20121;-73
2022/05/09 12:36:13;;;;;;;9.38;2.80;;;22.40;58.20;;;;;;4961976;28;20050;-74
2022/05/09 12:38:43;;;;;;;7.83;2.43;;;22.50;57.40;;;;;;4954726;28;20077;-73
2022/05/09 12:41:15;;;;;;;9.60;2.20;;;22.70;56.90;;;;;;4952833;28;20073;-74
2022/05/09 12:44:07;;;;;;;8.68;2.63;;;22.80;57.40;;;;;;4971046;28;20042;-74
2022/05/09 12:46:55;;;;;;;8.18;2.38;;;22.90;55.90;;;;;;4951810;28;20094;-74
2022/05/09 12:49:28;;;;;;;12.57;2.33;;;22.90;56.70;;;;;;4935051;28;20082;-71
2022/05/09 12:52:03;;;;;;;5.25;1.73;;;23.00;57.60;;;;;;4968890;28;20152;-71
2022/05/09 12:54:30;;;;;;;9.13;2.03;;;23.10;56.80;;;;;;4969692;28;20126;-71
2022/05/09 12:57:01;;;;;;;11.38;2.38;;;23.30;56.30;;;;;;4966296;28;20054;-72
2022/05/09 12:59:43;;;;;;;12.93;2.40;;;23.40;54.70;;;;;;4967625;28;20050;-72
2022/05/09 13:02:09;;;;;;;9.85;2.33;;;23.40;56.00;;;;;;4955078;28;20074;-72
2022/05/09 13:04:36;;;;;;;7.22;1.77;;;23.50;55.20;;;;;;4973443;28;20070;-71
2022/05/09 13:07:05;;;;;;;6.10;2.03;;;23.60;54.00;;;;;;4971994;28;20376;-71
2022/05/09 13:09:35;;;;;;;10.23;2.10;;;23.50;52.80;;;;;;4972814;28;20127;-71
2022/05/09 13:12:05;;;;;;;11.68;1.85;;;23.50;53.60;;;;;;4971492;28;20050;-71
2022/05/09 13:14:49;;;;;;;8.07;2.15;;;23.50;53.80;;;;;;4972871;28;20065;-72
2022/05/09 13:17:29;;;;;;;6.82;1.85;;;23.60;55.00;;;;;;4971634;28;20121;-71